Time;durP1;ratioP1;P1;durP2;ratioP2;P2;SDS_P1;SDS_P2;PMS_P1;PMS_P2;Temp;Humidity;BMP_temperature;BMP_pressure;BME280_temperature;BME280_humidity;BME280_pressure;Samples;Min_cycle;Max_cycle;Signal;HPM_P1;HPM_P2
2022/04/18 00:01:34;;;;;;;;;5.25;4.25;;;;;;;;5032428;28;45416;-61
2022/04/18 00:04:00;;;;;;;;;6.50;5.50;;;;;;;;5025118;28;45618;-60
2022/04/18 00:06:25;;;;;;;;;12.25;11.75;;;;;;;;5022643;28;45396;-60
2022/04/18 00:08:50;;;;;;;;;8.50;8.50;;;;;;;;5031940;28;46626;-60
2022/04/18 00:11:15;;;;;;;;;10.25;9.00;;;;;;;;5029642;28;45321;-61
2022/04/18 00:13:40;;;;;;;;;9.00;8.50;;;;;;;;5032084;28;45530;-61
2022/04/18 00:16:06;;;;;;;;;7.75;7.75;;;;;;;;5032228;28;45380;-61
2022/04/18 00:18:31;;;;;;;;;3.75;2.75;;;;;;;;5031607;28;45391;-61
2022/04/18 00:20:56;;;;;;;;;6.00;6.00;;;;;;;;5030789;28;45821;-61
2022/04/18 00:23:21;;;;;;;;;1.50;1.50;;;;;;;;5031650;28;45629;-60
2022/04/18 00:25:46;;;;;;;;;2.75;2.00;;;;;;;;5033897;28;45435;-60
2022/04/18 00:28:12;;;;;;;;;1.50;1.50;;;;;;;;5031679;28;46127;-61
2022/04/18 00:30:38;;;;;;;;;2.25;2.00;;;;;;;;5030850;28;45403;-61
2022/04/18 00:33:03;;;;;;;;;1.00;1.00;;;;;;;;5030624;28;45557;-60
2022/04/18 00:35:28;;;;;;;;;3.00;1.75;;;;;;;;5030680;28;45526;-61
2022/04/18 00:37:53;;;;;;;;;3.50;3.50;;;;;;;;5028141;28;46821;-60
2022/04/18 00:40:19;;;;;;;;;4.75;3.00;;;;;;;;5030519;28;45460;-61
2022/04/18 00:42:44;;;;;;;;;3.75;3.75;;;;;;;;5031725;28;45474;-62
2022/04/18 00:45:10;;;;;;;;;4.50;4.50;;;;;;;;5028080;28;45508;-61
2022/04/18 00:47:35;;;;;;;;;2.75;2.00;;;;;;;;5019323;28;45543;-60
2022/04/18 00:50:01;;;;;;;;;2.25;2.25;;;;;;;;5027390;28;45431;-60
2022/04/18 00:52:26;;;;;;;;;5.00;2.75;;;;;;;;5015458;28;45678;-61
2022/04/18 00:54:54;;;;;;;;;2.00;2.00;;;;;;;;5032905;28;45524;-61
2022/04/18 00:57:20;;;;;;;;;0.00;0.00;;;;;;;;5035551;28;46500;-61
2022/04/18 00:59:45;;;;;;;;;2.00;2.00;;;;;;;;5022610;28;46070;-61
2022/04/18 01:02:13;;;;;;;;;1.50;1.00;;;;;;;;5025288;28;45643;-61
2022/04/18 01:04:38;;;;;;;;;1.00;1.00;;;;;;;;5020761;28;45826;-61
2022/04/18 01:07:04;;;;;;;;;1.00;1.00;;;;;;;;5028267;28;46568;-60
2022/04/18 01:09:29;;;;;;;;;2.00;2.00;;;;;;;;5033010;28;45458;-61
2022/04/18 01:11:54;;;;;;;;;1.00;1.00;;;;;;;;5030774;28;45737;-60
2022/04/18 01:14:19;;;;;;;;;2.00;2.00;;;;;;;;5028119;28;45473;-61
2022/04/18 01:16:45;;;;;;;;;1.00;1.00;;;;;;;;5022076;28;46582;-60
2022/04/18 01:19:10;;;;;;;;;2.00;2.00;;;;;;;;5018488;28;45605;-61
2022/04/18 01:21:35;;;;;;;;;1.25;1.25;;;;;;;;5032521;28;45434;-60
2022/04/18 01:24:00;;;;;;;;;2.00;2.00;;;;;;;;5022307;28;45390;-60
2022/04/18 01:29:10;;;;;;;;;1.00;1.00;;;;;;;;5021839;28;45393;-60
2022/04/18 01:31:36;;;;;;;;;2.75;2.00;;;;;;;;5021836;28;45435;-61
2022/04/18 01:34:02;;;;;;;;;3.00;1.50;;;;;;;;5017715;28;45444;-60
2022/04/18 01:36:28;;;;;;;;;2.00;2.00;;;;;;;;5032351;28;47253;-60
2022/04/18 01:38:54;;;;;;;;;2.00;2.00;;;;;;;;5029907;28;45429;-60
2022/04/18 01:41:19;;;;;;;;;2.00;2.00;;;;;;;;5030486;28;45373;-60
2022/04/18 01:43:44;;;;;;;;;1.25;1.25;;;;;;;;5034527;28;45557;-60
2022/04/18 01:46:10;;;;;;;;;2.00;2.00;;;;;;;;5032993;28;47409;-61
2022/04/18 01:48:35;;;;;;;;;1.75;1.00;;;;;;;;5031442;28;45455;-60
2022/04/18 01:51:00;;;;;;;;;2.00;2.00;;;;;;;;5031285;28;45489;-60
2022/04/18 01:53:27;;;;;;;;;1.25;1.25;;;;;;;;5031829;28;45467;-60
2022/04/18 01:55:53;;;;;;;;;2.00;2.00;;;;;;;;5033611;28;46177;-61
2022/04/18 01:58:18;;;;;;;;;4.00;1.00;;;;;;;;5031237;28;46234;-61
2022/04/18 02:00:43;;;;;;;;;2.00;2.00;;;;;;;;5031468;28;45508;-61
2022/04/18 02:03:08;;;;;;;;;3.00;3.00;;;;;;;;5035742;28;45658;-60
2022/04/18 02:05:34;;;;;;;;;1.00;1.00;;;;;;;;5029244;28;47661;-60
2022/04/18 02:07:59;;;;;;;;;1.50;1.50;;;;;;;;5024980;28;45372;-60
2022/04/18 02:10:24;;;;;;;;;1.50;1.50;;;;;;;;5034286;28;45494;-60
2022/04/18 02:12:50;;;;;;;;;2.50;2.50;;;;;;;;5049628;28;45342;-61
2022/04/18 02:15:15;;;;;;;;;1.00;1.00;;;;;;;;5035790;28;46121;-61
2022/04/18 02:17:40;;;;;;;;;3.00;2.00;;;;;;;;5029475;28;45494;-61
2022/04/18 02:20:06;;;;;;;;;2.50;2.50;;;;;;;;5020900;28;45724;-61
2022/04/18 02:22:31;;;;;;;;;2.00;2.00;;;;;;;;5020162;28;49902;-61
2022/04/18 02:24:59;;;;;;;;;3.00;3.00;;;;;;;;5031032;28;47808;-60
2022/04/18 02:27:25;;;;;;;;;2.25;2.25;;;;;;;;5030788;28;45429;-61
2022/04/18 02:29:50;;;;;;;;;1.75;1.75;;;;;;;;5033184;28;45330;-62
2022/04/18 02:34:59;;;;;;;;;2.00;2.00;;;;;;;;5033607;28;45882;-60
2022/04/18 02:37:24;;;;;;;;;3.00;3.00;;;;;;;;5032810;28;47760;-61
2022/04/18 02:39:49;;;;;;;;;3.00;2.00;;;;;;;;5033980;28;45543;-60
2022/04/18 02:42:17;;;;;;;;;3.75;3.50;;;;;;;;5035784;28;45392;-60
2022/04/18 02:44:45;;;;;;;;;3.00;3.00;;;;;;;;5028813;28;47826;-60
2022/04/18 02:47:10;;;;;;;;;4.75;3.25;;;;;;;;5025520;28;45523;-63
2022/04/18 02:49:37;;;;;;;;;2.75;2.75;;;;;;;;5033723;28;45548;-61
2022/04/18 02:52:02;;;;;;;;;3.00;3.00;;;;;;;;5033659;28;45510;-61
2022/04/18 02:54:27;;;;;;;;;2.00;2.00;;;;;;;;5035146;28;46519;-60
2022/04/18 02:56:52;;;;;;;;;4.50;3.50;;;;;;;;5033206;28;45403;-60
2022/04/18 02:59:18;;;;;;;;;5.25;3.25;;;;;;;;5033318;28;45819;-60
2022/04/18 03:01:43;;;;;;;;;4.25;4.25;;;;;;;;5033262;28;45411;-60
2022/04/18 03:04:08;;;;;;;;;4.50;3.75;;;;;;;;5032668;28;46149;-60
2022/04/18 03:06:33;;;;;;;;;5.25;3.75;;;;;;;;5030138;28;45674;-60
2022/04/18 03:08:59;;;;;;;;;4.50;3.50;;;;;;;;5030321;28;45366;-60
2022/04/18 03:11:24;;;;;;;;;5.50;4.00;;;;;;;;5028754;28;45396;-60
2022/04/18 03:13:49;;;;;;;;;4.00;4.00;;;;;;;;5031553;28;48682;-60
2022/04/18 03:16:14;;;;;;;;;5.00;5.00;;;;;;;;5029522;28;46124;-61
2022/04/18 03:18:40;;;;;;;;;4.00;4.00;;;;;;;;5034288;28;45881;-61
2022/04/18 03:21:06;;;;;;;;;4.00;4.00;;;;;;;;5034218;28;45568;-61
2022/04/18 03:23:31;;;;;;;;;5.25;4.00;;;;;;;;5032853;28;45459;-60
2022/04/18 03:25:57;;;;;;;;;6.00;4.25;;;;;;;;5032772;28;45609;-60
2022/04/18 03:28:22;;;;;;;;;4.00;4.00;;;;;;;;5032769;28;46013;-60
2022/04/18 03:30:48;;;;;;;;;4.50;4.50;;;;;;;;5033382;28;45694;-61
2022/04/18 03:33:13;;;;;;;;;4.00;4.00;;;;;;;;5032887;28;45876;-60
2022/04/18 03:39:50;;;;;;;;;4.50;3.25;;;;;;;;5032835;28;45712;-61
2022/04/18 03:41:07;;;;;;;;;2.75;2.75;;;;;;;;5032724;28;45682;-60
2022/04/18 03:43:32;;;;;;;;;4.25;4.25;;;;;;;;5032408;28;47687;-60
2022/04/18 03:45:58;;;;;;;;;4.50;4.50;;;;;;;;5031210;28;45466;-60
2022/04/18 03:48:23;;;;;;;;;3.50;3.50;;;;;;;;5034849;28;45352;-60
2022/04/18 03:50:48;;;;;;;;;3.50;3.50;;;;;;;;5028117;28;45626;-60
2022/04/18 03:53:13;;;;;;;;;4.00;4.00;;;;;;;;5023592;28;46713;-60
2022/04/18 03:55:38;;;;;;;;;5.00;4.00;;;;;;;;5031176;28;45970;-60
2022/04/18 03:58:04;;;;;;;;;4.00;4.00;;;;;;;;5032007;28;45373;-60
2022/04/18 04:00:29;;;;;;;;;5.50;4.00;;;;;;;;5034105;28;45346;-60
2022/04/18 04:02:54;;;;;;;;;3.25;3.00;;;;;;;;5027221;28;47040;-60
2022/04/18 04:05:19;;;;;;;;;4.50;3.25;;;;;;;;5025450;28;45508;-60
2022/04/18 04:07:45;;;;;;;;;3.25;3.25;;;;;;;;5031312;28;45510;-60
2022/04/18 04:10:10;;;;;;;;;5.00;5.00;;;;;;;;5032432;28;45501;-60
2022/04/18 04:12:35;;;;;;;;;4.00;4.00;;;;;;;;5033363;28;46399;-61
2022/04/18 04:15:00;;;;;;;;;4.00;4.00;;;;;;;;5033009;28;45306;-60
2022/04/18 04:17:26;;;;;;;;;4.00;4.00;;;;;;;;5027958;28;45413;-60
2022/04/18 04:19:51;;;;;;;;;4.00;4.00;;;;;;;;5021715;28;45409;-60
2022/04/18 04:22:17;;;;;;;;;4.25;4.25;;;;;;;;5030845;28;45535;-60
2022/04/18 04:24:42;;;;;;;;;4.00;3.75;;;;;;;;5029379;28;46354;-60
2022/04/18 04:27:07;;;;;;;;;3.00;3.00;;;;;;;;5033132;28;45364;-60
2022/04/18 04:29:32;;;;;;;;;3.75;3.75;;;;;;;;5030472;28;46033;-60
2022/04/18 04:31:58;;;;;;;;;5.00;3.25;;;;;;;;5031721;28;45742;-61
2022/04/18 04:34:23;;;;;;;;;5.50;4.25;;;;;;;;5030605;28;45524;-60
2022/04/18 04:36:48;;;;;;;;;4.00;4.00;;;;;;;;5029531;28;45439;-60
2022/04/18 04:39:14;;;;;;;;;5.25;4.75;;;;;;;;5033641;28;45493;-60
2022/04/18 04:41:39;;;;;;;;;3.25;3.25;;;;;;;;5031605;28;47765;-60
2022/04/18 04:44:07;;;;;;;;;4.75;3.75;;;;;;;;5031643;28;45430;-60
2022/04/18 04:46:33;;;;;;;;;4.00;4.00;;;;;;;;5031625;28;45431;-60
2022/04/18 04:48:58;;;;;;;;;4.00;3.75;;;;;;;;5030449;28;45386;-60
2022/04/18 04:51:24;;;;;;;;;3.25;3.25;;;;;;;;5033728;28;46052;-60
2022/04/18 04:53:49;;;;;;;;;4.00;4.00;;;;;;;;5031703;28;45459;-61
2022/04/18 04:56:14;;;;;;;;;4.50;4.50;;;;;;;;5031294;28;45437;-61
2022/04/18 04:58:40;;;;;;;;;4.50;4.50;;;;;;;;5031715;28;45543;-60
2022/04/18 05:01:07;;;;;;;;;4.00;4.00;;;;;;;;5031636;28;46425;-60
2022/04/18 05:03:32;;;;;;;;;4.00;4.00;;;;;;;;5033411;28;45304;-60
2022/04/18 05:05:57;;;;;;;;;3.75;3.00;;;;;;;;5031642;28;45614;-60
2022/04/18 05:08:23;;;;;;;;;3.00;3.00;;;;;;;;5025367;28;45396;-59
2022/04/18 05:10:48;;;;;;;;;3.00;3.00;;;;;;;;5020789;28;47092;-60
2022/04/18 05:13:13;;;;;;;;;3.00;3.00;;;;;;;;5031316;28;45339;-60
2022/04/18 05:15:38;;;;;;;;;3.75;3.75;;;;;;;;5032856;28;45404;-60
2022/04/18 05:18:04;;;;;;;;;4.25;4.25;;;;;;;;5047589;28;45456;-60
2022/04/18 05:20:29;;;;;;;;;5.00;5.00;;;;;;;;5030535;28;45606;-60
2022/04/18 05:22:54;;;;;;;;;5.00;5.00;;;;;;;;5029299;28;45361;-60
2022/04/18 05:25:21;;;;;;;;;5.50;5.50;;;;;;;;5030877;28;45732;-60
2022/04/18 05:27:47;;;;;;;;;4.25;3.00;;;;;;;;5028870;28;45470;-61
2022/04/18 05:30:12;;;;;;;;;4.25;4.25;;;;;;;;5032883;28;46662;-60
2022/04/18 05:32:37;;;;;;;;;4.50;3.50;;;;;;;;5026391;28;45468;-61
2022/04/18 05:35:03;;;;;;;;;5.25;5.25;;;;;;;;5021467;28;45406;-61
2022/04/18 05:37:28;;;;;;;;;6.50;5.50;;;;;;;;5031334;28;45784;-63
2022/04/18 05:39:53;;;;;;;;;5.00;5.00;;;;;;;;5029503;28;45647;-60
2022/04/18 05:42:21;;;;;;;;;4.00;4.00;;;;;;;;5027415;28;45733;-60
2022/04/18 05:44:46;;;;;;;;;7.00;6.00;;;;;;;;5032078;28;45592;-61
2022/04/18 05:47:11;;;;;;;;;7.00;5.00;;;;;;;;5031940;28;45403;-60
2022/04/18 05:49:36;;;;;;;;;4.00;4.00;;;;;;;;5032377;28;45549;-61
2022/04/18 05:52:02;;;;;;;;;7.00;6.00;;;;;;;;5021483;28;45566;-61
2022/04/18 05:54:27;;;;;;;;;7.25;6.00;;;;;;;;5026759;28;45826;-62
2022/04/18 05:56:52;;;;;;;;;5.75;5.75;;;;;;;;5017594;28;45552;-61
2022/04/18 05:59:17;;;;;;;;;7.00;7.00;;;;;;;;5018141;28;46226;-61
2022/04/18 06:01:43;;;;;;;;;8.00;6.75;;;;;;;;5017085;28;45877;-61
2022/04/18 06:04:08;;;;;;;;;5.25;5.00;;;;;;;;5019278;28;45794;-62
2022/04/18 06:06:33;;;;;;;;;9.00;9.00;;;;;;;;5024207;28;45522;-61
2022/04/18 06:08:58;;;;;;;;;12.75;12.25;;;;;;;;5017531;28;46141;-61
2022/04/18 06:11:23;;;;;;;;;12.00;12.00;;;;;;;;5027069;28;45583;-62
2022/04/18 06:13:49;;;;;;;;;8.25;8.25;;;;;;;;5025848;28;45396;-63
2022/04/18 06:16:14;;;;;;;;;11.00;9.75;;;;;;;;5020808;28;45457;-61
2022/04/18 06:18:39;;;;;;;;;9.00;9.00;;;;;;;;5024919;28;46521;-60
2022/04/18 06:21:06;;;;;;;;;11.50;11.50;;;;;;;;5023788;28;45400;-61
2022/04/18 06:23:31;;;;;;;;;10.00;10.00;;;;;;;;5017798;28;45969;-61
2022/04/18 06:25:56;;;;;;;;;8.25;8.00;;;;;;;;5025327;28;45419;-61
2022/04/18 06:28:21;;;;;;;;;9.25;9.25;;;;;;;;5024346;28;48470;-61
2022/04/18 06:30:47;;;;;;;;;14.00;13.25;;;;;;;;5023137;28;46606;-62
2022/04/18 06:33:12;;;;;;;;;13.00;12.50;;;;;;;;5016811;28;45391;-62
2022/04/18 06:35:38;;;;;;;;;15.00;15.00;;;;;;;;5017552;28;45544;-61
2022/04/18 06:38:04;;;;;;;;;13.00;13.00;;;;;;;;5020343;28;46285;-62
2022/04/18 06:40:29;;;;;;;;;16.25;13.75;;;;;;;;5022224;28;45496;-62
2022/04/18 06:42:54;;;;;;;;;11.25;10.00;;;;;;;;5020038;28;45751;-61
2022/04/18 06:45:19;;;;;;;;;13.25;11.00;;;;;;;;5033252;28;45584;-62
2022/04/18 06:47:44;;;;;;;;;10.50;10.00;;;;;;;;5029854;28;46319;-60
2022/04/18 06:50:12;;;;;;;;;12.25;10.75;;;;;;;;5016454;28;45785;-61
2022/04/18 06:52:38;;;;;;;;;10.75;10.75;;;;;;;;5018660;28;45475;-62
2022/04/18 06:55:04;;;;;;;;;7.75;7.75;;;;;;;;5028937;28;45618;-62
2022/04/18 06:57:29;;;;;;;;;6.50;6.50;;;;;;;;5023337;28;48795;-61
2022/04/18 06:59:55;;;;;;;;;8.00;7.00;;;;;;;;5026780;28;45616;-60
2022/04/18 07:02:20;;;;;;;;;9.00;7.00;;;;;;;;5026573;28;45677;-62
2022/04/18 07:04:45;;;;;;;;;7.75;6.00;;;;;;;;5022639;28;45391;-62
2022/04/18 07:07:11;;;;;;;;;6.00;6.00;;;;;;;;5029217;28;45505;-62
2022/04/18 07:09:36;;;;;;;;;8.00;6.00;;;;;;;;5015901;28;45513;-63
2022/04/18 07:12:01;;;;;;;;;6.25;6.25;;;;;;;;5017004;28;45523;-63
2022/04/18 07:14:26;;;;;;;;;8.00;7.00;;;;;;;;5018197;28;45364;-63
2022/04/18 07:16:53;;;;;;;;;6.25;6.00;;;;;;;;5028945;28;45985;-62
2022/04/18 07:19:18;;;;;;;;;7.00;7.00;;;;;;;;5027811;28;45357;-62
2022/04/18 07:21:43;;;;;;;;;6.25;6.25;;;;;;;;5028372;28;45525;-62
2022/04/18 07:24:08;;;;;;;;;5.00;5.00;;;;;;;;5028422;28;48062;-62
2022/04/18 07:26:34;;;;;;;;;6.50;6.50;;;;;;;;5019624;28;46371;-62
2022/04/18 07:29:00;;;;;;;;;6.75;6.75;;;;;;;;5024559;28;45519;-62
2022/04/18 07:31:25;;;;;;;;;8.00;7.00;;;;;;;;5031636;28;45520;-63
2022/04/18 07:33:50;;;;;;;;;5.75;5.75;;;;;;;;5031122;28;45432;-62
2022/04/18 07:36:16;;;;;;;;;7.75;7.75;;;;;;;;5031041;28;46246;-61
2022/04/18 07:38:50;;;;;;;;;11.25;7.25;;;;;;;;5026555;28;45445;-61
2022/04/18 07:41:23;;;;;;;;;8.25;8.00;;;;;;;;5031044;28;45787;-63
2022/04/18 07:43:49;;;;;;;;;7.50;6.50;;;;;;;;5028891;28;46952;-62
2022/04/18 07:46:17;;;;;;;;;6.50;6.50;;;;;;;;5030245;28;45617;-61
2022/04/18 07:48:43;;;;;;;;;9.00;9.00;;;;;;;;5029814;28;45443;-62
2022/04/18 07:53:52;;;;;;;;;6.75;6.00;;;;;;;;5029843;28;45408;-62
2022/04/18 07:56:19;;;;;;;;;7.25;6.25;;;;;;;;5030562;28;45811;-62
2022/04/18 07:58:45;;;;;;;;;7.00;6.25;;;;;;;;5029054;28;45812;-62
2022/04/18 08:01:10;;;;;;;;;6.50;5.75;;;;;;;;5031071;28;45522;-62
2022/04/18 08:03:36;;;;;;;;;8.00;8.00;;;;;;;;5031171;28;45572;-61
2022/04/18 08:06:01;;;;;;;;;7.00;7.00;;;;;;;;5032184;28;45459;-62
2022/04/18 08:08:26;;;;;;;;;9.25;7.25;;;;;;;;5032432;28;45567;-62
2022/04/18 08:10:51;;;;;;;;;1.25;1.00;;;;;;;;5032616;28;45451;-62
2022/04/18 08:13:17;;;;;;;;;10.75;8.50;;;;;;;;5031219;28;45392;-62
2022/04/18 08:15:42;;;;;;;;;6.50;6.25;;;;;;;;5031121;28;46736;-62
2022/04/18 08:18:07;;;;;;;;;9.25;8.25;;;;;;;;5033619;28;45437;-62
2022/04/18 08:20:33;;;;;;;;;9.25;9.25;;;;;;;;5032767;28;45392;-62
2022/04/18 08:22:58;;;;;;;;;7.50;7.50;;;;;;;;5030768;28;45368;-62
2022/04/18 08:25:23;;;;;;;;;11.25;10.00;;;;;;;;5022858;28;45833;-62
2022/04/18 08:27:48;;;;;;;;;10.25;8.50;;;;;;;;5025011;28;45547;-62
2022/04/18 08:30:13;;;;;;;;;11.25;10.00;;;;;;;;5023380;28;47004;-62
2022/04/18 08:32:39;;;;;;;;;9.25;9.25;;;;;;;;5028939;28;45295;-62
2022/04/18 08:35:05;;;;;;;;;7.00;7.00;;;;;;;;5028028;28;46654;-62
2022/04/18 08:37:30;;;;;;;;;8.00;8.00;;;;;;;;5031624;28;45872;-61
2022/04/18 08:39:56;;;;;;;;;6.25;6.25;;;;;;;;5031708;28;45531;-61
2022/04/18 08:42:22;;;;;;;;;10.00;9.00;;;;;;;;5022394;28;45389;-61
2022/04/18 08:44:49;;;;;;;;;7.50;7.50;;;;;;;;5027055;28;48618;-61
2022/04/18 08:52:43;;;;;;;;;8.75;8.25;;;;;;;;5025986;28;45788;-61
2022/04/18 08:52:45;;;;;;;;;11.25;10.25;;;;;;;;5025789;28;45488;-63
2022/04/18 08:55:11;;;;;;;;;7.50;7.50;;;;;;;;5030291;28;48115;-61
2022/04/18 08:57:36;;;;;;;;;11.75;10.75;;;;;;;;5029251;28;45991;-61
2022/04/18 09:00:02;;;;;;;;;11.50;11.50;;;;;;;;5018811;28;45349;-61
2022/04/18 09:02:28;;;;;;;;;13.25;12.25;;;;;;;;5044417;28;45570;-61
2022/04/18 09:04:53;;;;;;;;;10.75;10.75;;;;;;;;5030075;28;46013;-61
2022/04/18 09:07:18;;;;;;;;;11.75;10.75;;;;;;;;5017997;28;45404;-61
2022/04/18 09:09:44;;;;;;;;;9.50;9.50;;;;;;;;5028755;28;45449;-61
2022/04/18 09:12:19;;;;;;;;;10.75;9.00;;;;;;;;5030989;28;45484;-61
2022/04/18 09:14:48;;;;;;;;;9.00;9.00;;;;;;;;5033136;28;47670;-61
2022/04/18 09:17:33;;;;;;;;;9.25;9.25;;;;;;;;5034560;28;45369;-61
2022/04/18 09:20:08;;;;;;;;;11.25;8.50;;;;;;;;5034578;28;45710;-61
2022/04/18 09:22:43;;;;;;;;;6.25;6.25;;;;;;;;5034480;28;45666;-60
2022/04/18 09:25:21;;;;;;;;;8.50;8.00;;;;;;;;5033002;28;46488;-61
2022/04/18 09:27:54;;;;;;;;;7.75;7.75;;;;;;;;5031038;28;47984;-61
2022/04/18 09:30:19;;;;;;;;;6.00;6.00;;;;;;;;5034369;28;45591;-61
2022/04/18 09:32:54;;;;;;;;;17.25;16.75;;;;;;;;5027286;28;45929;-61
2022/04/18 09:35:23;;;;;;;;;25.25;20.25;;;;;;;;5029100;28;45579;-61
2022/04/18 09:37:50;;;;;;;;;5.50;5.00;;;;;;;;5027724;28;45507;-61
2022/04/18 09:40:20;;;;;;;;;11.50;10.00;;;;;;;;5018630;28;45439;-61
2022/04/18 09:42:46;;;;;;;;;8.00;8.00;;;;;;;;5028330;28;45493;-62
2022/04/18 09:45:11;;;;;;;;;7.50;7.50;;;;;;;;5026243;28;47502;-63
2022/04/18 09:47:36;;;;;;;;;6.00;6.00;;;;;;;;5047089;28;45502;-61
2022/04/18 09:50:58;;;;;;;;;7.75;7.75;;;;;;;;5033198;28;45457;-61
2022/04/18 09:53:00;;;;;;;;;11.75;7.75;;;;;;;;5025389;28;45527;-60
2022/04/18 09:55:25;;;;;;;;;9.75;8.00;;;;;;;;5024305;28;45787;-62
2022/04/18 09:57:50;;;;;;;;;6.00;6.00;;;;;;;;5029076;28;45789;-61
2022/04/18 10:00:16;;;;;;;;;7.75;7.75;;;;;;;;5035227;28;45389;-60
2022/04/18 10:02:41;;;;;;;;;10.00;10.00;;;;;;;;5030413;28;45563;-61
2022/04/18 10:05:07;;;;;;;;;3.50;3.50;;;;;;;;5028457;28;46415;-60
2022/04/18 10:07:33;;;;;;;;;9.00;8.25;;;;;;;;5024067;28;45432;-62
2022/04/18 10:09:58;;;;;;;;;9.25;9.25;;;;;;;;5025314;28;45501;-61
2022/04/18 10:12:24;;;;;;;;;8.25;8.25;;;;;;;;5012945;28;45852;-61
2022/04/18 10:14:49;;;;;;;;;6.75;6.75;;;;;;;;5022749;28;45721;-61
2022/04/18 10:17:16;;;;;;;;;15.50;9.75;;;;;;;;5017994;28;45405;-61
2022/04/18 10:19:59;;;;;;;;;10.00;9.25;;;;;;;;5018262;28;45421;-61
2022/04/18 10:22:43;;;;;;;;;9.00;9.00;;;;;;;;5032120;28;45446;-59
2022/04/18 10:25:19;;;;;;;;;9.75;9.75;;;;;;;;5028951;28;45712;-60
2022/04/18 10:27:47;;;;;;;;;6.00;6.00;;;;;;;;5025276;28;45465;-60
2022/04/18 10:30:14;;;;;;;;;11.50;10.50;;;;;;;;5022368;28;45499;-60
2022/04/18 10:32:40;;;;;;;;;9.50;9.50;;;;;;;;5017263;28;45419;-60
2022/04/18 10:35:05;;;;;;;;;11.50;10.50;;;;;;;;5019419;28;46578;-60
2022/04/18 10:37:31;;;;;;;;;8.50;8.50;;;;;;;;5028349;28;47892;-60
2022/04/18 10:39:56;;;;;;;;;8.00;8.00;;;;;;;;5029399;28;45490;-60
2022/04/18 10:42:22;;;;;;;;;11.00;9.75;;;;;;;;5029548;28;45455;-61
2022/04/18 10:44:57;;;;;;;;;8.75;8.75;;;;;;;;5031657;28;45462;-62
2022/04/18 10:47:22;;;;;;;;;7.50;7.50;;;;;;;;5032089;28;45465;-61
2022/04/18 10:50:07;;;;;;;;;9.00;9.00;;;;;;;;5035931;28;45415;-61
2022/04/18 10:52:33;;;;;;;;;7.50;7.50;;;;;;;;5032777;28;45444;-61
2022/04/18 10:54:59;;;;;;;;;5.00;4.25;;;;;;;;5031597;28;45584;-60
2022/04/18 10:57:26;;;;;;;;;6.50;6.50;;;;;;;;5033389;28;45666;-60
2022/04/18 10:59:51;;;;;;;;;8.50;8.50;;;;;;;;5032201;28;45326;-60
2022/04/18 11:02:37;;;;;;;;;7.00;7.00;;;;;;;;5031647;28;45544;-61
2022/04/18 11:05:02;;;;;;;;;5.00;5.00;;;;;;;;5031452;28;45678;-61
2022/04/18 11:07:37;;;;;;;;;6.00;6.00;;;;;;;;5033405;28;45420;-61
2022/04/18 11:10:16;;;;;;;;;9.00;8.50;;;;;;;;5033557;28;45435;-61
2022/04/18 11:12:43;;;;;;;;;6.25;6.25;;;;;;;;5033412;28;45499;-60
2022/04/18 11:15:08;;;;;;;;;7.50;7.50;;;;;;;;5033238;28;45531;-60
2022/04/18 11:17:37;;;;;;;;;7.25;6.25;;;;;;;;5033194;28;45270;-61
2022/04/18 11:20:21;;;;;;;;;5.00;5.00;;;;;;;;5046684;28;45566;-61
2022/04/18 11:23:06;;;;;;;;;4.75;4.75;;;;;;;;5034739;28;45463;-59
2022/04/18 11:25:48;;;;;;;;;4.00;4.00;;;;;;;;5031800;28;45814;-61
2022/04/18 11:28:14;;;;;;;;;5.75;5.75;;;;;;;;5031229;28;45541;-61
2022/04/18 11:30:40;;;;;;;;;4.25;4.00;;;;;;;;5028484;28;45736;-60
2022/04/18 11:33:06;;;;;;;;;15.50;15.50;;;;;;;;5021809;28;46190;-60
2022/04/18 11:35:31;;;;;;;;;6.50;6.50;;;;;;;;5014673;28;48009;-60
2022/04/18 11:37:57;;;;;;;;;5.25;5.25;;;;;;;;5033825;28;45719;-60
2022/04/18 11:40:22;;;;;;;;;3.75;3.75;;;;;;;;5032902;28;45438;-60
2022/04/18 11:42:48;;;;;;;;;5.00;5.00;;;;;;;;5028292;28;45628;-60
2022/04/18 11:45:24;;;;;;;;;4.50;3.25;;;;;;;;5022370;28;45428;-60
2022/04/18 11:47:49;;;;;;;;;5.00;5.00;;;;;;;;5032891;28;45408;-60
2022/04/18 11:50:21;;;;;;;;;3.00;3.00;;;;;;;;5033635;28;45872;-60
2022/04/18 11:52:47;;;;;;;;;5.00;4.00;;;;;;;;5033703;28;45548;-60
2022/04/18 11:55:15;;;;;;;;;4.50;3.00;;;;;;;;5032577;28;46449;-60
2022/04/18 11:57:41;;;;;;;;;4.00;4.00;;;;;;;;5027926;28;45731;-61
2022/04/18 12:00:10;;;;;;;;;3.00;3.00;;;;;;;;5019449;28;45861;-60
2022/04/18 12:08:05;;;;;;;;;4.00;4.00;;;;;;;;5030397;28;45547;-60
2022/04/18 12:10:31;;;;;;;;;5.75;4.50;;;;;;;;5031726;28;45324;-61
2022/04/18 12:12:57;;;;;;;;;3.50;3.50;;;;;;;;5030857;28;45487;-61
2022/04/18 12:15:23;;;;;;;;;4.75;4.25;;;;;;;;5032098;28;45725;-61
2022/04/18 12:17:49;;;;;;;;;5.00;5.00;;;;;;;;5032312;28;45614;-60
2022/04/18 12:20:33;;;;;;;;;4.00;4.00;;;;;;;;5030260;28;45454;-61
2022/04/18 12:22:59;;;;;;;;;4.75;4.75;;;;;;;;5034395;28;45706;-60
2022/04/18 12:25:29;;;;;;;;;5.50;4.50;;;;;;;;5031491;28;45677;-61
2022/04/18 12:27:55;;;;;;;;;4.25;4.25;;;;;;;;5025972;28;46282;-61
2022/04/18 12:30:21;;;;;;;;;4.00;4.00;;;;;;;;5019720;28;45652;-60
2022/04/18 12:32:49;;;;;;;;;2.50;2.50;;;;;;;;5029922;28;45775;-61
2022/04/18 12:35:37;;;;;;;;;6.00;6.00;;;;;;;;5030179;28;46510;-61
2022/04/18 12:38:12;;;;;;;;;3.50;3.50;;;;;;;;5029223;28;46354;-61
2022/04/18 12:40:41;;;;;;;;;4.00;4.00;;;;;;;;5032136;28;45440;-61
2022/04/18 12:43:07;;;;;;;;;2.75;2.75;;;;;;;;5031916;28;45624;-61
2022/04/18 12:45:52;;;;;;;;;2.25;2.25;;;;;;;;5031864;28;46342;-61
2022/04/18 12:48:24;;;;;;;;;3.00;3.00;;;;;;;;5032317;28;45468;-61
2022/04/18 12:50:51;;;;;;;;;3.00;3.00;;;;;;;;5034038;28;45870;-61
2022/04/18 12:53:16;;;;;;;;;2.00;2.00;;;;;;;;5036007;28;45603;-61
2022/04/18 12:55:41;;;;;;;;;3.00;3.00;;;;;;;;5037554;28;45500;-61
2022/04/18 12:58:14;;;;;;;;;4.75;4.75;;;;;;;;5015601;28;46236;-61
2022/04/18 13:00:39;;;;;;;;;5.50;5.50;;;;;;;;5028887;28;45313;-61
2022/04/18 13:03:05;;;;;;;;;4.00;4.00;;;;;;;;5034118;28;47304;-60
2022/04/18 13:05:32;;;;;;;;;3.00;2.25;;;;;;;;5035586;28;45660;-61
2022/04/18 13:08:02;;;;;;;;;3.00;3.00;;;;;;;;5037228;28;45502;-60
2022/04/18 13:10:28;;;;;;;;;2.00;2.00;;;;;;;;5030585;28;45572;-60
2022/04/18 13:13:01;;;;;;;;;3.25;3.25;;;;;;;;5027701;28;45382;-60
2022/04/18 13:15:27;;;;;;;;;3.25;3.25;;;;;;;;5033497;28;48334;-61
2022/04/18 13:18:01;;;;;;;;;2.75;2.75;;;;;;;;5034799;28;45362;-60
2022/04/18 13:20:26;;;;;;;;;2.25;2.25;;;;;;;;5035305;28;45365;-60
2022/04/18 13:22:52;;;;;;;;;2.75;2.25;;;;;;;;5035886;28;45464;-60
2022/04/18 13:25:17;;;;;;;;;4.50;4.00;;;;;;;;5034647;28;46445;-62
2022/04/18 13:27:42;;;;;;;;;3.25;3.25;;;;;;;;5034969;28;45433;-61
2022/04/18 13:30:08;;;;;;;;;2.00;2.00;;;;;;;;5032118;28;45456;-61
2022/04/18 13:32:33;;;;;;;;;5.00;4.00;;;;;;;;5035509;28;45412;-61
2022/04/18 13:34:58;;;;;;;;;3.00;3.00;;;;;;;;5036928;28;46395;-59
2022/04/18 13:37:23;;;;;;;;;3.50;3.50;;;;;;;;5034662;28;45375;-61
2022/04/18 13:39:49;;;;;;;;;4.00;4.00;;;;;;;;5034585;28;45547;-61
2022/04/18 13:42:15;;;;;;;;;2.75;2.75;;;;;;;;5034924;28;45445;-61
2022/04/18 13:44:40;;;;;;;;;2.00;2.00;;;;;;;;5034721;28;46343;-62
2022/04/18 13:47:05;;;;;;;;;4.00;3.00;;;;;;;;5036144;28;45472;-61
2022/04/18 13:49:31;;;;;;;;;3.50;2.00;;;;;;;;5035193;28;45366;-61
2022/04/18 13:51:56;;;;;;;;;0.00;0.00;;;;;;;;5034613;28;45428;-61
2022/04/18 13:54:21;;;;;;;;;2.00;2.00;;;;;;;;5032972;28;48172;-60
2022/04/18 13:56:46;;;;;;;;;3.00;3.00;;;;;;;;5034484;28;45375;-63
2022/04/18 13:59:12;;;;;;;;;2.25;2.25;;;;;;;;5034361;28;45386;-61
2022/04/18 14:01:38;;;;;;;;;3.00;3.00;;;;;;;;5034268;28;45733;-60
2022/04/18 14:04:03;;;;;;;;;2.50;2.50;;;;;;;;5034262;28;46131;-60
2022/04/18 14:06:29;;;;;;;;;2.25;1.25;;;;;;;;5032818;28;45597;-60
2022/04/18 14:08:55;;;;;;;;;3.00;3.00;;;;;;;;5032735;28;45583;-61
2022/04/18 14:11:20;;;;;;;;;2.00;2.00;;;;;;;;5032172;28;45498;-61
2022/04/18 14:13:46;;;;;;;;;3.00;3.00;;;;;;;;5036142;28;46656;-62
2022/04/18 14:21:49;;;;;;;;;2.00;2.00;;;;;;;;5030273;28;45393;-61
2022/04/18 14:24:14;;;;;;;;;3.00;3.00;;;;;;;;5029968;28;45642;-60
2022/04/18 14:26:40;;;;;;;;;6.00;6.00;;;;;;;;5030533;28;45489;-60
2022/04/18 14:29:06;;;;;;;;;12.50;12.25;;;;;;;;5034114;28;45480;-60
2022/04/18 14:31:32;;;;;;;;;4.00;4.00;;;;;;;;5018655;28;45367;-60
2022/04/18 14:33:57;;;;;;;;;1.75;1.00;;;;;;;;5029827;28;46345;-60
2022/04/18 14:36:22;;;;;;;;;2.50;2.00;;;;;;;;5030189;28;45481;-60
2022/04/18 14:38:48;;;;;;;;;2.25;2.25;;;;;;;;5030320;28;45473;-60
2022/04/18 14:41:13;;;;;;;;;0.50;0.50;;;;;;;;5032596;28;45414;-60
2022/04/18 14:43:38;;;;;;;;;1.25;1.25;;;;;;;;5031048;28;45320;-61
2022/04/18 14:46:04;;;;;;;;;1.75;1.75;;;;;;;;5029442;28;45497;-60
2022/04/18 14:48:29;;;;;;;;;2.00;2.00;;;;;;;;5013465;28;45998;-60
2022/04/18 14:50:55;;;;;;;;;2.00;2.00;;;;;;;;5030218;28;45407;-59
2022/04/18 14:53:20;;;;;;;;;2.00;2.00;;;;;;;;5031974;28;46748;-61
2022/04/18 14:55:46;;;;;;;;;2.00;2.00;;;;;;;;5020793;28;45435;-61
2022/04/18 14:58:11;;;;;;;;;2.25;2.25;;;;;;;;5031040;28;45350;-61
2022/04/18 15:00:36;;;;;;;;;2.25;1.25;;;;;;;;5029221;28;45586;-61
2022/04/18 15:03:02;;;;;;;;;1.75;1.75;;;;;;;;5020493;28;45784;-61